Time;durP1;ratioP1;P1;durP2;ratioP2;P2;SDS_P1;SDS_P2;PMS_P1;PMS_P2;Temp;Humidity;BMP_temperature;BMP_pressure;BME280_temperature;BME280_humidity;BME280_pressure;Samples;Min_cycle;Max_cycle;Signal;HPM_P1;HPM_P2
2023/07/03 00:00:27;;;;;;;6.90;3.45;;;;;;;15.71;90.55;96049.06;6204684;23;21124;-70
2023/07/03 00:02:54;;;;;;;3.83;2.45;;;;;;;15.42;90.03;96047.75;6204904;23;20197;-68
2023/07/03 00:05:21;;;;;;;9.07;3.13;;;;;;;15.35;91.64;96046.16;6205412;23;20180;-66
2023/07/03 00:07:48;;;;;;;10.23;2.80;;;;;;;15.40;91.20;96049.00;6204778;23;20177;-69
2023/07/03 00:10:16;;;;;;;4.43;2.58;;;;;;;15.50;91.36;96057.34;6204415;23;20698;-66
2023/07/03 00:12:42;;;;;;;6.45;3.03;;;;;;;15.30;91.69;96053.97;6205077;23;20204;-69
2023/07/03 00:15:10;;;;;;;8.40;2.58;;;;;;;15.30;91.27;96053.97;6204515;23;20204;-65
2023/07/03 00:17:38;;;;;;;7.47;2.53;;;;;;;15.43;91.96;96053.91;6203898;23;20178;-68
2023/07/03 00:20:06;;;;;;;7.55;2.15;;;;;;;15.33;91.88;96053.53;6204384;23;20181;-66
2023/07/03 00:22:33;;;;;;;7.60;3.72;;;;;;;15.13;92.12;96051.94;6204810;23;20706;-67
2023/07/03 00:24:59;;;;;;;9.00;3.92;;;;;;;15.13;93.05;96055.41;6205067;23;20599;-66
2023/07/03 00:27:26;;;;;;;3.63;2.00;;;;;;;15.16;92.61;96056.81;6204314;23;20177;-65
2023/07/03 00:29:52;;;;;;;10.73;3.83;;;;;;;15.22;91.83;96054.19;6204605;23;20176;-70
2023/07/03 00:36:02;;;;;;;13.93;3.20;;;;;;;15.13;93.04;96057.25;4996989;28;20583;-64
2023/07/03 00:38:29;;;;;;;11.25;2.90;;;;;;;15.08;92.92;96063.16;4996438;28;20671;-65
2023/07/03 00:40:55;;;;;;;8.95;2.83;;;;;;;15.17;92.26;96064.56;4996913;28;20609;-64
2023/07/03 00:43:22;;;;;;;8.05;3.22;;;;;;;15.17;92.43;96064.56;4996993;28;20218;-68
2023/07/03 00:45:49;;;;;;;6.68;2.38;;;;;;;15.22;92.35;96071.97;4996805;28;20715;-69
2023/07/03 00:48:16;;;;;;;11.55;3.30;;;;;;;15.26;92.52;96063.34;4996240;28;20214;-65
2023/07/03 00:50:43;;;;;;;9.18;2.50;;;;;;;15.19;91.16;96067.84;4996719;28;20203;-65
2023/07/03 00:53:10;;;;;;;5.95;2.28;;;;;;;15.38;91.10;96064.34;4996733;28;20254;-70
2023/07/03 00:55:38;;;;;;;5.05;2.58;;;;;;;15.34;92.26;96063.13;4996924;28;20194;-67
2023/07/03 00:58:04;;;;;;;7.13;2.78;;;;;;;15.31;93.41;96066.19;4995904;28;20215;-64
2023/07/03 01:00:38;;;;;;;6.90;3.00;;;;;;;15.49;93.79;96063.66;4996501;28;20213;-69
2023/07/03 01:03:11;;;;;;;7.13;2.75;;;;;;;15.57;93.90;96071.41;4996499;28;20718;-65
2023/07/03 01:05:43;;;;;;;10.10;3.10;;;;;;;15.60;93.70;96065.66;4996713;28;20238;-66
2023/07/03 01:08:11;;;;;;;8.02;3.45;;;;;;;15.60;94.17;96065.66;4996069;28;20207;-67
2023/07/03 01:10:39;;;;;;;4.97;2.50;;;;;;;15.50;94.98;96055.50;4996618;28;20276;-65
2023/07/03 01:13:10;;;;;;;9.90;3.50;;;;;;;15.49;94.20;96050.38;4996376;28;20710;-65
2023/07/03 01:15:40;;;;;;;5.97;2.80;;;;;;;15.69;94.62;96053.78;4996200;28;20203;-70
2023/07/03 01:18:07;;;;;;;6.93;2.63;;;;;;;15.57;95.12;96050.97;4996105;28;20202;-64
2023/07/03 01:20:40;;;;;;;3.97;2.20;;;;;;;15.70;96.84;96050.09;4996412;28;20199;-66
2023/07/03 01:23:18;;;;;;;9.10;3.22;;;;;;;15.80;96.91;96048.59;4996266;28;20741;-70
2023/07/03 01:25:48;;;;;;;9.48;3.42;;;;;;;15.72;97.69;96051.50;4996311;28;20230;-65
2023/07/03 01:28:18;;;;;;;5.65;2.38;;;;;;;15.69;98.15;96053.78;4995981;28;20217;-66
2023/07/03 01:30:45;;;;;;;6.43;2.83;;;;;;;15.80;96.53;96045.16;4996671;28;20207;-66
2023/07/03 01:33:17;;;;;;;8.40;3.13;;;;;;;15.87;96.47;96046.72;4995695;28;20875;-65
2023/07/03 01:35:46;;;;;;;6.70;2.72;;;;;;;15.78;97.69;96045.34;4996191;28;20720;-64
2023/07/03 01:38:13;;;;;;;6.93;2.78;;;;;;;15.75;97.65;96047.63;4995177;28;20310;-69
2023/07/03 01:40:39;;;;;;;9.82;3.95;;;;;;;15.79;97.55;96048.81;4995946;28;20203;-68
2023/07/03 01:43:07;;;;;;;8.57;3.13;;;;;;;15.93;97.39;96045.84;4996108;28;20245;-67
2023/07/03 01:45:34;;;;;;;6.38;2.78;;;;;;;15.85;97.43;96041.63;4992976;28;20242;-65
2023/07/03 01:48:01;;;;;;;13.73;3.47;;;;;;;15.92;97.04;96037.09;4982209;28;20207;-66
2023/07/03 01:50:30;;;;;;;9.40;2.97;;;;;;;16.12;96.43;96040.41;4983127;28;20199;-65
2023/07/03 01:53:03;;;;;;;5.72;1.75;;;;;;;16.16;96.43;96035.47;4983260;28;20266;-67
2023/07/03 01:55:39;;;;;;;6.40;2.90;;;;;;;16.20;97.47;96042.00;4982868;28;20203;-68
2023/07/03 01:58:16;;;;;;;10.73;2.95;;;;;;;16.22;97.49;96035.44;4982410;28;20217;-65
2023/07/03 02:00:48;;;;;;;8.60;2.97;;;;;;;16.12;98.72;96040.41;4982965;28;20214;-68
2023/07/03 02:03:23;;;;;;;6.97;2.90;;;;;;;16.16;97.88;96038.13;4982701;28;20247;-67
